sensor_id;sensor_type;location;lat;lon;timestamp;pressure;altitude;pressure_sealevel;temperature;humidity
21760;BME280;11041;50.854;20.580;2023-05-03T00:02:07;99308.66;;;10.39;99.61
21760;BME280;11041;50.854;20.580;2023-05-03T00:04:35;99321.69;;;10.48;99.56
21760;BME280;11041;50.854;20.580;2023-05-03T00:07:03;99327.28;;;10.42;99.68
21760;BME280;11041;50.854;20.580;2023-05-03T00:09:29;99332.41;;;10.49;99.58
21760;BME280;11041;50.854;20.580;2023-05-03T00:11:56;99321.78;;;10.42;100.00
21760;BME280;11041;50.854;20.580;2023-05-03T00:14:23;99325.06;;;10.44;99.98
21760;BME280;11041;50.854;20.580;2023-05-03T00:16:49;99332.59;;;10.53;99.81
21760;BME280;11041;50.854;20.580;2023-05-03T00:19:16;99301.00;;;10.36;100.00
21760;BME280;11041;50.854;20.580;2023-05-03T00:21:43;99323.84;;;10.51;99.60
21760;BME280;11041;50.854;20.580;2023-05-03T00:24:09;99334.69;;;10.61;100.00
21760;BME280;11041;50.854;20.580;2023-05-03T00:26:36;99319.75;;;10.48;99.58
21760;BME280;11041;50.854;20.580;2023-05-03T00:29:02;99334.25;;;10.54;99.97
21760;BME280;11041;50.854;20.580;2023-05-03T00:31:29;99311.94;;;10.41;99.96
21760;BME280;11041;50.854;20.580;2023-05-03T00:33:55;99303.69;;;10.41;100.00
21760;BME280;11041;50.854;20.580;2023-05-03T00:36:22;99327.00;;;10.58;100.00
21760;BME280;11041;50.854;20.580;2023-05-03T00:38:48;99311.31;;;10.44;99.83
21760;BME280;11041;50.854;20.580;2023-05-03T00:41:16;99341.28;;;10.60;99.98
21760;BME280;11041;50.854;20.580;2023-05-03T00:43:42;99337.44;;;10.61;100.00
21760;BME280;11041;50.854;20.580;2023-05-03T00:46:09;99321.69;;;10.48;100.00
21760;BME280;11041;50.854;20.580;2023-05-03T00:48:36;99322.00;;;10.46;100.00
21760;BME280;11041;50.854;20.580;2023-05-03T00:51:04;99317.00;;;10.48;100.00
21760;BME280;11041;50.854;20.580;2023-05-03T00:53:32;99302.84;;;10.41;100.00
21760;BME280;11041;50.854;20.580;2023-05-03T00:56:00;99328.16;;;10.57;100.00
21760;BME280;11041;50.854;20.580;2023-05-03T00:58:27;99296.34;;;10.37;100.00
21760;BME280;11041;50.854;20.580;2023-05-03T01:00:54;99331.41;;;10.59;100.00
21760;BME280;11041;50.854;20.580;2023-05-03T01:03:20;99312.03;;;10.50;100.00
21760;BME280;11041;50.854;20.580;2023-05-03T01:08:58;99327.44;;;10.51;100.00
21760;BME280;11041;50.854;20.580;2023-05-03T01:15:10;99321.56;;;10.39;100.00
21760;BME280;11041;50.854;20.580;2023-05-03T01:17:50;99338.72;;;10.50;100.00
21760;BME280;11041;50.854;20.580;2023-05-03T01:20:22;99336.69;;;10.55;100.00
21760;BME280;11041;50.854;20.580;2023-05-03T01:25:25;99311.03;;;10.27;100.00
21760;BME280;11041;50.854;20.580;2023-05-03T01:27:54;99317.28;;;10.33;100.00
21760;BME280;11041;50.854;20.580;2023-05-03T01:30:26;99315.88;;;10.35;100.00
21760;BME280;11041;50.854;20.580;2023-05-03T01:33:09;99314.06;;;10.44;100.00
21760;BME280;11041;50.854;20.580;2023-05-03T01:38:35;99326.91;;;10.49;100.00
21760;BME280;11041;50.854;20.580;2023-05-03T01:41:08;99314.44;;;10.38;100.00
21760;BME280;11041;50.854;20.580;2023-05-03T01:43:39;99331.59;;;10.49;100.00
21760;BME280;11041;50.854;20.580;2023-05-03T01:46:06;99304.66;;;10.32;100.00
21760;BME280;11041;50.854;20.580;2023-05-03T01:48:33;99324.00;;;10.40;100.00
21760;BME280;11041;50.854;20.580;2023-05-03T01:50:59;99326.16;;;10.43;100.00
21760;BME280;11041;50.854;20.580;2023-05-03T01:53:26;99338.72;;;10.50;100.00
21760;BME280;11041;50.854;20.580;2023-05-03T01:55:52;99327.13;;;10.34;100.00
21760;BME280;11041;50.854;20.580;2023-05-03T01:58:19;99339.69;;;10.40;100.00
21760;BME280;11041;50.854;20.580;2023-05-03T02:00:47;99330.41;;;10.36;100.00
21760;BME280;11041;50.854;20.580;2023-05-03T02:03:14;99328.88;;;10.30;100.00
21760;BME280;11041;50.854;20.580;2023-05-03T02:05:41;99331.31;;;10.31;100.00
21760;BME280;11041;50.854;20.580;2023-05-03T02:08:08;99352.00;;;10.42;100.00
21760;BME280;11041;50.854;20.580;2023-05-03T02:10:34;99357.22;;;10.44;100.00
21760;BME280;11041;50.854;20.580;2023-05-03T02:13:02;99339.88;;;10.30;100.00
21760;BME280;11041;50.854;20.580;2023-05-03T02:15:28;99347.03;;;10.44;100.00
21760;BME280;11041;50.854;20.580;2023-05-03T02:17:55;99355.72;;;10.52;100.00
21760;BME280;11041;50.854;20.580;2023-05-03T02:20:23;99336.03;;;10.44;100.00
21760;BME280;11041;50.854;20.580;2023-05-03T02:22:50;99347.16;;;10.53;100.00
21760;BME280;11041;50.854;20.580;2023-05-03T02:25:16;99326.16;;;10.43;100.00
21760;BME280;11041;50.854;20.580;2023-05-03T02:27:43;99323.41;;;10.43;100.00
21760;BME280;11041;50.854;20.580;2023-05-03T02:30:09;99341.88;;;10.57;100.00
21760;BME280;11041;50.854;20.580;2023-05-03T02:32:36;99345.25;;;10.54;100.00
21760;BME280;11041;50.854;20.580;2023-05-03T02:35:03;99351.84;;;10.53;100.00
21760;BME280;11041;50.854;20.580;2023-05-03T02:37:30;99366.63;;;10.57;100.00
21760;BME280;11041;50.854;20.580;2023-05-03T02:39:56;99337.31;;;10.33;100.00
21760;BME280;11041;50.854;20.580;2023-05-03T02:42:23;99342.44;;;10.21;100.00
21760;BME280;11041;50.854;20.580;2023-05-03T02:44:49;99360.16;;;10.10;100.00
21760;BME280;11041;50.854;20.580;2023-05-03T02:47:16;99355.56;;;10.05;100.00
21760;BME280;11041;50.854;20.580;2023-05-03T02:49:42;99346.66;;;9.94;100.00
21760;BME280;11041;50.854;20.580;2023-05-03T02:52:09;99364.09;;;10.03;100.00
21760;BME280;11041;50.854;20.580;2023-05-03T02:54:35;99360.09;;;9.96;100.00
21760;BME280;11041;50.854;20.580;2023-05-03T02:57:02;99356.53;;;9.95;100.00
21760;BME280;11041;50.854;20.580;2023-05-03T02:59:29;99345.97;;;9.84;100.00
21760;BME280;11041;50.854;20.580;2023-05-03T03:01:58;99372.50;;;9.93;100.00
21760;BME280;11041;50.854;20.580;2023-05-03T03:04:24;99383.97;;;9.95;100.00
21760;BME280;11041;50.854;20.580;2023-05-03T03:06:51;99349.41;;;9.75;100.00
21760;BME280;11041;50.854;20.580;2023-05-03T03:09:19;99360.53;;;9.84;100.00
21760;BME280;11041;50.854;20.580;2023-05-03T03:11:45;99373.94;;;9.86;100.00
21760;BME280;11041;50.854;20.580;2023-05-03T03:14:12;99381.91;;;9.87;100.00
21760;BME280;11041;50.854;20.580;2023-05-03T03:16:38;99367.66;;;9.85;100.00
21760;BME280;11041;50.854;20.580;2023-05-03T03:19:05;99364.38;;;9.83;100.00
21760;BME280;11041;50.854;20.580;2023-05-03T03:21:31;99376.06;;;9.94;100.00
21760;BME280;11041;50.854;20.580;2023-05-03T03:23:58;99386.44;;;9.97;100.00
21760;BME280;11041;50.854;20.580;2023-05-03T03:26:25;99384.03;;;9.90;100.00
21760;BME280;11041;50.854;20.580;2023-05-03T03:28:51;99377.56;;;9.81;100.00
21760;BME280;11041;50.854;20.580;2023-05-03T03:31:18;99377.00;;;9.84;100.00
21760;BME280;11041;50.854;20.580;2023-05-03T03:33:49;99392.28;;;9.90;100.00
21760;BME280;11041;50.854;20.580;2023-05-03T03:36:17;99387.47;;;9.82;100.00
21760;BME280;11041;50.854;20.580;2023-05-03T03:38:43;99374.91;;;9.76;100.00
21760;BME280;11041;50.854;20.580;2023-05-03T03:41:10;99395.09;;;9.85;100.00
21760;BME280;11041;50.854;20.580;2023-05-03T03:43:37;99395.91;;;9.86;100.00
21760;BME280;11041;50.854;20.580;2023-05-03T03:46:03;99383.94;;;9.76;100.00
21760;BME280;11041;50.854;20.580;2023-05-03T03:48:30;99406.00;;;9.90;100.00
21760;BME280;11041;50.854;20.580;2023-05-03T03:50:57;99405.47;;;9.88;100.00
21760;BME280;11041;50.854;20.580;2023-05-03T03:53:23;99379.22;;;9.82;100.00
21760;BME280;11041;50.854;20.580;2023-05-03T03:55:50;99395.28;;;9.94;100.00
21760;BME280;11041;50.854;20.580;2023-05-03T03:58:16;99408.31;;;10.02;100.00
21760;BME280;11041;50.854;20.580;2023-05-03T04:00:43;99390.81;;;9.98;100.00
21760;BME280;11041;50.854;20.580;2023-05-03T04:03:09;99398.06;;;10.08;100.00
21760;BME280;11041;50.854;20.580;2023-05-03T04:05:36;99425.81;;;10.30;100.00
21760;BME280;11041;50.854;20.580;2023-05-03T04:08:02;99432.13;;;10.31;100.00
21760;BME280;11041;50.854;20.580;2023-05-03T04:10:29;99428.31;;;10.27;100.00
21760;BME280;11041;50.854;20.580;2023-05-03T04:12:55;99428.31;;;10.27;100.00
21760;BME280;11041;50.854;20.580;2023-05-03T04:15:22;99409.75;;;10.18;100.00
21760;BME280;11041;50.854;20.580;2023-05-03T04:17:48;99437.78;;;10.39;100.00
21760;BME280;11041;50.854;20.580;2023-05-03T04:20:15;99407.53;;;10.20;100.00
21760;BME280;11041;50.854;20.580;2023-05-03T04:22:43;99410.81;;;10.22;100.00
21760;BME280;11041;50.854;20.580;2023-05-03T04:25:13;99448.31;;;10.51;100.00
21760;BME280;11041;50.854;20.580;2023-05-03T04:27:39;99431.25;;;10.35;100.00
21760;BME280;11041;50.854;20.580;2023-05-03T04:30:07;99431.41;;;10.44;100.00
21760;BME280;11041;50.854;20.580;2023-05-03T04:32:34;99449.25;;;10.60;100.00
21760;BME280;11041;50.854;20.580;2023-05-03T04:35:09;99433.97;;;10.54;100.00
21760;BME280;11041;50.854;20.580;2023-05-03T04:37:39;99438.34;;;10.55;100.00
21760;BME280;11041;50.854;20.580;2023-05-03T04:40:07;99450.53;;;10.68;100.00
21760;BME280;11041;50.854;20.580;2023-05-03T04:42:38;99457.91;;;10.73;100.00
21760;BME280;11041;50.854;20.580;2023-05-03T04:45:05;99442.59;;;10.66;100.00
21760;BME280;11041;50.854;20.580;2023-05-03T04:47:34;99415.63;;;10.50;100.00
21760;BME280;11041;50.854;20.580;2023-05-03T04:50:02;99449.56;;;10.78;100.00
21760;BME280;11041;50.854;20.580;2023-05-03T04:52:28;99430.25;;;10.64;100.00
21760;BME280;11041;50.854;20.580;2023-05-03T04:54:56;99439.16;;;10.75;100.00
21760;BME280;11041;50.854;20.580;2023-05-03T04:57:22;99447.63;;;10.78;100.00
21760;BME280;11041;50.854;20.580;2023-05-03T04:59:49;99424.97;;;10.68;100.00
21760;BME280;11041;50.854;20.580;2023-05-03T05:02:15;99444.50;;;10.85;100.00
21760;BME280;11041;50.854;20.580;2023-05-03T05:04:42;99445.00;;;10.87;99.81
21760;BME280;11041;50.854;20.580;2023-05-03T05:07:08;99441.00;;;10.79;99.67
21760;BME280;11041;50.854;20.580;2023-05-03T05:09:35;99439.38;;;10.78;99.41
21760;BME280;11041;50.854;20.580;2023-05-03T05:12:04;99436.19;;;10.71;99.38
21760;BME280;11041;50.854;20.580;2023-05-03T05:14:31;99458.53;;;10.83;100.00
21760;BME280;11041;50.854;20.580;2023-05-03T05:16:58;99428.56;;;10.68;100.00
21760;BME280;11041;50.854;20.580;2023-05-03T05:19:25;99429.03;;;10.70;99.45
21760;BME280;11041;50.854;20.580;2023-05-03T05:21:51;99440.28;;;10.74;99.35
21760;BME280;11041;50.854;20.580;2023-05-03T05:24:18;99455.25;;;10.81;99.66
21760;BME280;11041;50.854;20.580;2023-05-03T05:26:45;99471.31;;;10.74;100.00
21760;BME280;11041;50.854;20.580;2023-05-03T05:29:12;99484.41;;;10.82;100.00
21760;BME280;11041;50.854;20.580;2023-05-03T05:31:38;99453.28;;;10.68;100.00
21760;BME280;11041;50.854;20.580;2023-05-03T05:34:05;99474.69;;;10.71;100.00
21760;BME280;11041;50.854;20.580;2023-05-03T05:36:31;99468.88;;;10.73;100.00
21760;BME280;11041;50.854;20.580;2023-05-03T05:38:58;99497.63;;;10.80;100.00
21760;BME280;11041;50.854;20.580;2023-05-03T05:41:25;99497.84;;;10.84;100.00
21760;BME280;11041;50.854;20.580;2023-05-03T05:43:51;99476.91;;;10.69;100.00
21760;BME280;11041;50.854;20.580;2023-05-03T05:46:19;99498.19;;;10.77;100.00
21760;BME280;11041;50.854;20.580;2023-05-03T05:48:48;99474.44;;;10.68;100.00
21760;BME280;11041;50.854;20.580;2023-05-03T05:51:16;99509.81;;;10.74;100.00
21760;BME280;11041;50.854;20.580;2023-05-03T05:53:43;99494.53;;;10.68;100.00
21760;BME280;11041;50.854;20.580;2023-05-03T05:56:10;99513.00;;;10.81;100.00
21760;BME280;11041;50.854;20.580;2023-05-03T05:58:37;99500.13;;;10.77;100.00
21760;BME280;11041;50.854;20.580;2023-05-03T06:01:04;99479.03;;;10.53;100.00
21760;BME280;11041;50.854;20.580;2023-05-03T06:03:34;99479.50;;;10.41;100.00
21760;BME280;11041;50.854;20.580;2023-05-03T06:06:00;99512.09;;;10.67;100.00
21760;BME280;11041;50.854;20.580;2023-05-03T06:08:27;99494.34;;;10.59;100.00
21760;BME280;11041;50.854;20.580;2023-05-03T06:10:53;99510.94;;;10.73;100.00
21760;BME280;11041;50.854;20.580;2023-05-03T06:13:21;99531.19;;;10.77;100.00
21760;BME280;11041;50.854;20.580;2023-05-03T06:15:48;99500.75;;;10.55;100.00
21760;BME280;11041;50.854;20.580;2023-05-03T06:18:14;99522.56;;;10.65;100.00
21760;BME280;11041;50.854;20.580;2023-05-03T06:20:41;99524.94;;;10.53;100.00
21760;BME280;11041;50.854;20.580;2023-05-03T06:23:08;99530.97;;;10.55;100.00
21760;BME280;11041;50.854;20.580;2023-05-03T06:25:34;99521.69;;;10.51;100.00
21760;BME280;11041;50.854;20.580;2023-05-03T06:28:04;99514.50;;;10.55;100.00
21760;BME280;11041;50.854;20.580;2023-05-03T06:30:30;99531.66;;;10.65;100.00
21760;BME280;11041;50.854;20.580;2023-05-03T06:32:57;99540.03;;;10.74;100.00
21760;BME280;11041;50.854;20.580;2023-05-03T06:35:23;99534.34;;;10.71;100.00
21760;BME280;11041;50.854;20.580;2023-05-03T06:37:50;99521.56;;;10.61;100.00
21760;BME280;11041;50.854;20.580;2023-05-03T06:40:17;99512.25;;;10.57;100.00
21760;BME280;11041;50.854;20.580;2023-05-03T06:42:44;99524.22;;;10.66;100.00
21760;BME280;11041;50.854;20.580;2023-05-03T06:45:10;99521.47;;;10.66;100.00
21760;BME280;11041;50.854;20.580;2023-05-03T06:47:37;99506.16;;;10.60;100.00
21760;BME280;11041;50.854;20.580;2023-05-03T06:50:05;99502.59;;;10.59;100.00
21760;BME280;11041;50.854;20.580;2023-05-03T06:52:32;99538.03;;;10.80;99.55
21760;BME280;11041;50.854;20.580;2023-05-03T06:54:59;99522.50;;;10.70;97.13
21760;BME280;11041;50.854;20.580;2023-05-03T06:57:26;99523.63;;;10.69;96.78
21760;BME280;11041;50.854;20.580;2023-05-03T06:59:52;99511.00;;;10.68;96.43
21760;BME280;11041;50.854;20.580;2023-05-03T07:02:19;99519.22;;;10.87;96.96
21760;BME280;11041;50.854;20.580;2023-05-03T07:04:46;99526.28;;;10.93;95.78
21760;BME280;11041;50.854;20.580;2023-05-03T07:07:13;99536.22;;;11.08;95.70
21760;BME280;11041;50.854;20.580;2023-05-03T07:09:40;99525.22;;;11.08;94.39
21760;BME280;11041;50.854;20.580;2023-05-03T07:12:07;99519.81;;;11.03;94.36
